Terminal Aerodrome Forecast
Issued by NWS

Home | Current Version | Previous Version | Text Only | Print | Product List | Glossary Off
Versions: 1 2 3 4 5 6 7 8 9 10 11 12 13 14 15 16 17

000
FTUS43 KMPX 020520
TAFRNH
TAF
KRNH 020520Z 0206/0306 19004KT P6SM SCT120
     FM021200 23007KT P6SM SKC
     FM021700 31014G23KT P6SM SCT050
     FM030100 32006KT P6SM SKC=

USA.gov is the U.S. government's official web portal to all federal, state and local government web resources and services.